Time;durP1;ratioP1;P1;durP2;ratioP2;P2;SDS_P1;SDS_P2;PMS_P1;PMS_P2;Temp;Humidity;BMP_temperature;BMP_pressure;BME280_temperature;BME280_humidity;BME280_pressure;Samples;Min_cycle;Max_cycle;Signal;HPM_P1;HPM_P2
2023/08/13 00:00:18;;;;;;;5.70;5.13;;;17.60;99.90;;;;;;2049943;28;20260;-67
2023/08/13 00:01:19;;;;;;;7.33;5.80;;;17.60;99.90;;;;;;2046237;28;21111;-67
2023/08/13 00:02:19;;;;;;;5.73;5.23;;;17.60;99.90;;;;;;2038249;29;20195;-68
2023/08/13 00:03:20;;;;;;;8.20;5.83;;;17.50;99.90;;;;;;2045548;28;20239;-67
2023/08/13 00:04:21;;;;;;;7.03;5.90;;;17.60;99.90;;;;;;2051973;28;20262;-68
2023/08/13 00:05:22;;;;;;;6.27;5.60;;;17.60;99.90;;;;;;2049757;28;20238;-67
2023/08/13 00:06:23;;;;;;;8.37;6.70;;;17.50;99.90;;;;;;2051334;28;20235;-67
2023/08/13 00:07:24;;;;;;;8.33;5.23;;;17.60;99.90;;;;;;2058474;28;20464;-68
2023/08/13 00:08:24;;;;;;;7.67;5.30;;;17.60;99.90;;;;;;2053129;28;20226;-68
2023/08/13 00:09:25;;;;;;;6.23;5.57;;;17.60;99.90;;;;;;2052588;28;20230;-68
2023/08/13 00:10:26;;;;;;;7.23;5.00;;;17.60;99.90;;;;;;2046155;28;20227;-68
2023/08/13 00:11:27;;;;;;;6.70;5.40;;;17.60;99.90;;;;;;2046145;28;20565;-67
2023/08/13 00:12:28;;;;;;;6.63;5.60;;;17.50;99.90;;;;;;2054109;28;20325;-67
2023/08/13 00:13:28;;;;;;;6.37;5.33;;;17.50;99.90;;;;;;2053085;28;20649;-68
2023/08/13 00:14:29;;;;;;;6.17;5.57;;;17.30;99.90;;;;;;2052225;28;20258;-67
2023/08/13 00:15:30;;;;;;;6.70;5.97;;;17.30;99.90;;;;;;2051993;28;20230;-67
2023/08/13 00:16:30;;;;;;;7.93;5.80;;;17.30;99.90;;;;;;2054376;28;20288;-67
2023/08/13 00:17:31;;;;;;;7.30;6.13;;;17.30;99.90;;;;;;2054134;28;20709;-67
2023/08/13 00:18:32;;;;;;;7.23;5.90;;;17.30;99.90;;;;;;2053947;28;20234;-68
2023/08/13 00:19:32;;;;;;;9.03;6.10;;;17.30;99.90;;;;;;2041951;28;20750;-67
2023/08/13 00:20:33;;;;;;;6.23;5.63;;;17.30;99.90;;;;;;2039654;28;20232;-67
2023/08/13 00:21:35;;;;;;;8.00;6.20;;;17.30;99.90;;;;;;2040595;28;20239;-67
2023/08/13 00:22:36;;;;;;;6.23;5.63;;;17.40;99.90;;;;;;2056145;28;20235;-67
2023/08/13 00:23:37;;;;;;;6.43;5.43;;;17.40;99.90;;;;;;2053048;28;20582;-67
2023/08/13 00:24:38;;;;;;;6.70;5.60;;;17.50;99.90;;;;;;2051712;28;20237;-67
2023/08/13 00:25:38;;;;;;;7.33;6.03;;;17.50;99.90;;;;;;2047343;28;20473;-67
2023/08/13 00:26:42;;;;;;;6.10;5.50;;;17.60;99.90;;;;;;2046484;28;20313;-67
2023/08/13 00:27:42;;;;;;;6.87;5.83;;;17.60;99.90;;;;;;2043650;28;20219;-67
2023/08/13 00:28:43;;;;;;;6.13;5.37;;;17.60;99.90;;;;;;2048878;28;20504;-67
2023/08/13 00:29:44;;;;;;;6.93;4.80;;;17.60;99.90;;;;;;2050180;28;20314;-67
2023/08/13 00:30:44;;;;;;;5.50;4.83;;;17.50;99.90;;;;;;2048450;28;20223;-67
2023/08/13 00:31:45;;;;;;;6.57;5.13;;;17.40;99.90;;;;;;2053141;28;20258;-67
2023/08/13 00:32:46;;;;;;;5.17;4.67;;;17.50;99.90;;;;;;2060495;28;20332;-68
2023/08/13 00:33:46;;;;;;;7.50;5.60;;;17.50;99.90;;;;;;2060975;28;20689;-68
2023/08/13 00:34:47;;;;;;;5.67;5.00;;;17.50;99.90;;;;;;2052731;28;20230;-67
2023/08/13 00:35:50;;;;;;;7.43;6.07;;;17.50;99.90;;;;;;2046008;28;20270;-67
2023/08/13 00:36:51;;;;;;;6.47;5.80;;;17.50;99.90;;;;;;2053251;28;20227;-67
2023/08/13 00:37:51;;;;;;;6.67;5.10;;;17.50;99.90;;;;;;2050818;28;20477;-68
2023/08/13 00:38:52;;;;;;;7.30;6.00;;;17.50;99.90;;;;;;2053376;28;20230;-68
2023/08/13 00:39:53;;;;;;;6.57;5.97;;;17.50;99.90;;;;;;2048875;28;20306;-66
2023/08/13 00:40:53;;;;;;;6.63;5.47;;;17.50;99.90;;;;;;2045810;28;20238;-68
2023/08/13 00:41:54;;;;;;;6.17;5.57;;;17.50;99.90;;;;;;2045890;28;20266;-67
2023/08/13 00:42:55;;;;;;;6.30;5.70;;;17.50;99.90;;;;;;2050542;28;20235;-67
2023/08/13 00:43:55;;;;;;;6.00;4.97;;;17.60;99.90;;;;;;2050190;28;20294;-67
2023/08/13 00:44:56;;;;;;;5.97;5.37;;;17.60;99.90;;;;;;2053743;28;20585;-67
2023/08/13 00:45:58;;;;;;;8.07;5.67;;;17.60;99.90;;;;;;2054035;28;20227;-67
2023/08/13 00:46:58;;;;;;;7.60;6.00;;;17.60;99.90;;;;;;2052530;28;20223;-67
2023/08/13 00:48:00;;;;;;;7.67;5.80;;;17.60;99.90;;;;;;2038589;29;20480;-67
2023/08/13 00:49:01;;;;;;;7.33;5.97;;;17.60;99.90;;;;;;2045647;28;20247;-72
2023/08/13 00:50:04;;;;;;;8.60;6.57;;;17.70;99.90;;;;;;2058288;28;20490;-68
2023/08/13 00:51:06;;;;;;;8.43;6.60;;;17.60;99.90;;;;;;2047729;28;20417;-68
2023/08/13 00:52:07;;;;;;;10.37;6.60;;;17.70;99.90;;;;;;2047400;28;21108;-67
2023/08/13 00:53:08;;;;;;;8.30;6.67;;;17.70;99.90;;;;;;2055716;28;20441;-66
2023/08/13 00:54:09;;;;;;;6.70;5.80;;;17.70;99.90;;;;;;2054866;28;20413;-68
2023/08/13 00:55:11;;;;;;;6.57;4.70;;;17.70;99.90;;;;;;2050829;28;20607;-68
2023/08/13 00:56:14;;;;;;;6.40;4.73;;;17.70;99.90;;;;;;2057820;28;20197;-67
2023/08/13 00:57:15;;;;;;;5.87;4.77;;;17.60;99.90;;;;;;2052711;28;20428;-67
2023/08/13 00:58:17;;;;;;;6.27;4.97;;;17.70;99.90;;;;;;2049240;28;20516;-67
2023/08/13 00:59:18;;;;;;;5.07;4.57;;;17.70;99.90;;;;;;2042203;28;20250;-67
2023/08/13 01:00:20;;;;;;;5.23;4.70;;;17.80;99.90;;;;;;2042240;28;20426;-67
2023/08/13 01:01:21;;;;;;;6.30;4.80;;;17.80;99.90;;;;;;2056561;28;21892;-67
2023/08/13 01:02:23;;;;;;;6.23;5.07;;;17.80;99.90;;;;;;2062600;28;20550;-67
2023/08/13 01:03:24;;;;;;;8.50;6.43;;;17.80;99.90;;;;;;2042273;28;20550;-67
2023/08/13 01:04:24;;;;;;;7.10;5.70;;;17.60;99.90;;;;;;2046022;28;20589;-67
2023/08/13 01:05:44;;;;;;;8.80;6.07;;;17.60;99.90;;;;;;2054360;28;20885;-67
2023/08/13 01:06:54;;;;;;;7.57;5.60;;;17.50;99.90;;;;;;2050133;28;20227;-67
2023/08/13 01:08:26;;;;;;;6.83;6.03;;;17.60;99.90;;;;;;2047038;28;20476;-67
2023/08/13 01:10:13;;;;;;;7.13;5.80;;;17.60;99.90;;;;;;2045288;28;20464;-67
2023/08/13 01:11:52;;;;;;;7.00;6.00;;;17.60;99.90;;;;;;2031627;28;20478;-68
2023/08/13 01:13:23;;;;;;;6.70;5.47;;;17.60;99.90;;;;;;2044478;29;20997;-67
2023/08/13 01:14:34;;;;;;;8.33;5.80;;;17.50;99.90;;;;;;2049545;28;20458;-68
2023/08/13 01:15:41;;;;;;;7.10;5.03;;;17.40;99.90;;;;;;2046690;28;20521;-67
2023/08/13 01:16:43;;;;;;;6.97;5.57;;;17.50;99.90;;;;;;2047895;28;20869;-67
2023/08/13 01:17:48;;;;;;;6.90;5.80;;;17.50;99.90;;;;;;2053645;28;20469;-67
2023/08/13 01:18:49;;;;;;;7.37;5.57;;;17.60;99.90;;;;;;2048480;28;20528;-67
2023/08/13 01:19:50;;;;;;;6.17;5.57;;;17.60;99.90;;;;;;2053285;28;20519;-67
2023/08/13 01:20:50;;;;;;;7.43;5.70;;;17.70;99.90;;;;;;2053698;28;20560;-67
2023/08/13 01:21:51;;;;;;;7.90;6.13;;;17.70;99.90;;;;;;2057160;28;20676;-68
2023/08/13 01:22:52;;;;;;;6.47;5.87;;;17.70;99.90;;;;;;2049326;28;20255;-67
2023/08/13 01:23:53;;;;;;;6.00;5.30;;;17.80;99.90;;;;;;2047238;28;20227;-67
2023/08/13 01:24:56;;;;;;;7.20;6.20;;;17.70;99.90;;;;;;2051445;28;20227;-67
2023/08/13 01:26:03;;;;;;;8.03;5.67;;;17.70;99.90;;;;;;2051881;28;20714;-67
2023/08/13 01:27:28;;;;;;;6.10;5.50;;;17.70;99.90;;;;;;2056426;28;20457;-68
2023/08/13 01:28:43;;;;;;;6.93;5.57;;;17.70;99.90;;;;;;2058218;28;21181;-67
2023/08/13 01:29:54;;;;;;;7.97;6.10;;;17.70;99.90;;;;;;2052403;28;20475;-67
2023/08/13 01:31:01;;;;;;;6.23;5.63;;;17.70;99.90;;;;;;2046679;28;20900;-67
2023/08/13 01:32:04;;;;;;;6.80;5.87;;;17.70;99.90;;;;;;2047429;28;20808;-68
2023/08/13 01:33:08;;;;;;;11.70;6.10;;;17.70;99.90;;;;;;2054719;28;20460;-67
2023/08/13 01:34:09;;;;;;;7.73;5.80;;;17.80;99.90;;;;;;2045972;28;20913;-67
2023/08/13 01:35:10;;;;;;;7.67;5.73;;;17.90;99.90;;;;;;2038686;29;20946;-67
2023/08/13 01:36:16;;;;;;;6.50;5.50;;;17.90;99.90;;;;;;2035394;28;20415;-68
2023/08/13 01:37:19;;;;;;;8.23;5.70;;;17.90;99.90;;;;;;2053031;28;20433;-67
2023/08/13 01:38:21;;;;;;;5.80;5.20;;;17.80;99.90;;;;;;2044949;28;20453;-68
2023/08/13 01:39:22;;;;;;;7.73;6.00;;;17.80;99.90;;;;;;2043861;28;20532;-68
2023/08/13 01:40:23;;;;;;;6.30;5.70;;;17.80;99.90;;;;;;2046396;28;20620;-68
2023/08/13 01:41:23;;;;;;;8.37;5.57;;;17.70;99.90;;;;;;2053371;28;20241;-69
2023/08/13 01:42:24;;;;;;;7.57;5.57;;;17.70;99.90;;;;;;2054192;28;20231;-67
2023/08/13 01:43:26;;;;;;;7.30;5.97;;;17.70;99.90;;;;;;2052472;28;20227;-67
2023/08/13 01:44:26;;;;;;;6.47;5.50;;;17.70;99.90;;;;;;2050376;28;20477;-68
2023/08/13 01:45:27;;;;;;;6.70;5.50;;;17.60;99.90;;;;;;2051283;28;20472;-68
2023/08/13 01:46:28;;;;;;;7.60;6.07;;;17.60;99.90;;;;;;2055645;28;20270;-68
2023/08/13 01:47:29;;;;;;;8.03;6.27;;;17.60;99.90;;;;;;2054748;28;20266;-67
2023/08/13 01:48:30;;;;;;;6.93;4.63;;;17.60;99.90;;;;;;2050901;28;20468;-67
2023/08/13 01:49:32;;;;;;;7.27;5.13;;;17.60;99.90;;;;;;2054639;28;20226;-67
2023/08/13 01:50:33;;;;;;;6.13;5.17;;;17.50;99.90;;;;;;2055626;28;20245;-67
2023/08/13 01:51:33;;;;;;;6.23;5.17;;;17.60;99.90;;;;;;2061475;28;20515;-68
2023/08/13 01:52:35;;;;;;;6.57;5.70;;;17.70;99.90;;;;;;2046725;28;20610;-67
2023/08/13 01:53:35;;;;;;;11.43;6.23;;;17.70;99.90;;;;;;2046310;28;20619;-67
2023/08/13 01:54:36;;;;;;;6.53;5.57;;;17.70;99.90;;;;;;2048467;28;20470;-67
2023/08/13 01:55:38;;;;;;;7.00;5.80;;;17.80;99.90;;;;;;2050641;28;20654;-67
2023/08/13 01:56:39;;;;;;;6.50;5.60;;;17.70;99.90;;;;;;2052540;28;20230;-67
2023/08/13 01:57:39;;;;;;;5.73;5.23;;;17.80;99.90;;;;;;2054001;28;20894;-67
2023/08/13 01:58:40;;;;;;;6.00;5.40;;;17.70;99.90;;;;;;2052725;28;20258;-67
2023/08/13 01:59:41;;;;;;;7.80;5.27;;;17.70;99.90;;;;;;2050542;28;20746;-67
2023/08/13 02:00:41;;;;;;;6.43;5.73;;;17.70;99.90;;;;;;2052228;28;20235;-67
2023/08/13 02:01:42;;;;;;;7.90;5.77;;;17.70;99.90;;;;;;2046204;28;20239;-67
2023/08/13 02:02:43;;;;;;;6.13;5.53;;;17.70;99.90;;;;;;2046842;28;20876;-67
2023/08/13 02:03:44;;;;;;;7.50;6.03;;;17.80;99.90;;;;;;2056566;28;20234;-67
2023/08/13 02:04:44;;;;;;;7.53;6.07;;;17.80;99.90;;;;;;2050478;28;20231;-67
2023/08/13 02:05:45;;;;;;;7.40;5.80;;;17.70;99.90;;;;;;2047968;28;20242;-67
2023/08/13 02:06:46;;;;;;;8.77;6.20;;;17.70;99.90;;;;;;2052648;28;20645;-67
2023/08/13 02:07:48;;;;;;;7.10;5.67;;;17.60;99.90;;;;;;2049207;28;20306;-67
2023/08/13 02:08:48;;;;;;;6.50;5.90;;;17.60;99.90;;;;;;2046577;28;20266;-67
2023/08/13 02:09:49;;;;;;;7.93;5.90;;;17.60;99.90;;;;;;2054243;28;20894;-67
2023/08/13 02:10:50;;;;;;;6.57;5.80;;;17.50;99.90;;;;;;2047574;28;20310;-67
2023/08/13 02:11:50;;;;;;;6.47;5.33;;;17.50;99.90;;;;;;2045663;28;20231;-67
2023/08/13 02:12:51;;;;;;;6.90;6.13;;;17.60;99.90;;;;;;2054382;28;20227;-67
2023/08/13 02:13:52;;;;;;;7.17;5.97;;;17.60;99.90;;;;;;2054530;28;20254;-68
2023/08/13 02:14:53;;;;;;;8.23;6.27;;;17.70;99.90;;;;;;2054800;28;20345;-66
2023/08/13 02:15:54;;;;;;;6.93;5.97;;;17.70;99.90;;;;;;2051292;28;20469;-66
2023/08/13 02:16:54;;;;;;;7.10;6.40;;;17.70;99.90;;;;;;2054984;28;20242;-66
2023/08/13 02:17:55;;;;;;;7.50;6.23;;;17.70;99.90;;;;;;2054423;28;20748;-66
2023/08/13 02:18:56;;;;;;;7.00;6.23;;;17.80;99.90;;;;;;2054756;28;20314;-66
2023/08/13 02:19:56;;;;;;;7.57;6.50;;;17.90;99.90;;;;;;2050171;28;20282;-66
2023/08/13 02:20:57;;;;;;;6.00;5.40;;;18.00;99.90;;;;;;2046770;28;20757;-66
2023/08/13 02:21:58;;;;;;;7.57;5.93;;;18.00;99.90;;;;;;2038023;29;20239;-66
2023/08/13 02:22:59;;;;;;;6.67;5.93;;;18.00;99.90;;;;;;2037500;29;20473;-67
2023/08/13 02:24:00;;;;;;;8.50;6.10;;;18.00;99.90;;;;;;2053855;28;20223;-67
2023/08/13 02:25:00;;;;;;;10.23;6.23;;;18.10;99.90;;;;;;2050740;28;20234;-67
2023/08/13 02:26:01;;;;;;;8.13;5.83;;;18.20;99.90;;;;;;2057077;28;20310;-67
2023/08/13 02:27:02;;;;;;;7.00;5.90;;;18.20;99.90;;;;;;2056686;28;20318;-68
2023/08/13 02:28:03;;;;;;;6.53;5.83;;;18.30;99.90;;;;;;2054117;28;20539;-68
2023/08/13 02:29:04;;;;;;;6.63;5.90;;;18.30;99.90;;;;;;2050762;28;20199;-68
2023/08/13 02:30:06;;;;;;;7.63;5.70;;;18.30;99.90;;;;;;2044732;28;20456;-68
2023/08/13 02:31:06;;;;;;;7.30;6.30;;;18.30;99.90;;;;;;2041486;28;20722;-69
2023/08/13 02:32:07;;;;;;;7.10;6.00;;;18.30;99.90;;;;;;2060552;28;20472;-68
2023/08/13 02:33:08;;;;;;;6.57;5.70;;;18.40;99.90;;;;;;2053291;28;20646;-67
2023/08/13 02:34:08;;;;;;;8.27;5.97;;;18.40;99.90;;;;;;2036085;29;20272;-68
2023/08/13 02:35:09;;;;;;;7.37;5.77;;;18.40;99.90;;;;;;2041563;28;20668;-68
2023/08/13 02:36:10;;;;;;;7.40;5.90;;;18.50;99.90;;;;;;2034080;29;20188;-68
2023/08/13 02:37:11;;;;;;;8.47;6.30;;;18.50;99.90;;;;;;2049730;28;20195;-68
2023/08/13 02:38:12;;;;;;;7.43;5.97;;;18.60;99.90;;;;;;2053239;28;20794;-68
2023/08/13 02:39:17;;;;;;;6.63;5.93;;;18.60;99.90;;;;;;2053933;28;20440;-68
2023/08/13 02:40:18;;;;;;;7.10;6.43;;;18.50;99.90;;;;;;2046399;28;20190;-68
2023/08/13 02:41:19;;;;;;;6.97;5.53;;;18.60;99.90;;;;;;2051173;28;20434;-68
2023/08/13 02:42:19;;;;;;;5.87;5.10;;;18.60;99.90;;;;;;2056665;28;20265;-68
2023/08/13 02:43:20;;;;;;;6.27;5.67;;;18.50;99.90;;;;;;2044124;28;21775;-68
2023/08/13 02:44:21;;;;;;;6.90;5.10;;;18.40;99.90;;;;;;2048448;28;20239;-68
2023/08/13 02:45:21;;;;;;;7.33;5.83;;;18.20;99.90;;;;;;2051086;28;20835;-68
2023/08/13 02:46:24;;;;;;;6.60;5.77;;;18.10;99.90;;;;;;2047940;28;20298;-68
2023/08/13 02:47:25;;;;;;;7.90;5.70;;;18.00;99.90;;;;;;2048492;28;20390;-68
2023/08/13 02:48:26;;;;;;;9.37;6.63;;;18.10;99.90;;;;;;2047780;28;20520;-68
2023/08/13 02:49:27;;;;;;;10.77;6.40;;;18.10;99.90;;;;;;2048146;28;21002;-68
2023/08/13 02:50:28;;;;;;;7.93;5.93;;;18.20;99.90;;;;;;2048181;28;20231;-68
2023/08/13 02:51:29;;;;;;;10.17;6.97;;;18.20;99.90;;;;;;2047582;28;20305;-68
2023/08/13 02:52:29;;;;;;;7.73;6.93;;;18.20;99.90;;;;;;2046666;28;20557;-68
2023/08/13 02:53:30;;;;;;;7.73;6.67;;;18.30;99.90;;;;;;2050497;28;20291;-68
2023/08/13 02:54:31;;;;;;;8.77;6.33;;;18.40;99.90;;;;;;2061541;28;20697;-68
2023/08/13 02:55:31;;;;;;;6.57;5.87;;;18.40;99.90;;;;;;2047398;28;20219;-68
2023/08/13 02:56:32;;;;;;;6.83;6.10;;;18.50;99.90;;;;;;2046041;28;20738;-68
2023/08/13 02:57:33;;;;;;;9.23;6.27;;;18.50;99.90;;;;;;2050150;28;20238;-68
2023/08/13 02:58:33;;;;;;;7.20;5.83;;;18.50;99.90;;;;;;2051116;28;20230;-68
2023/08/13 02:59:34;;;;;;;5.93;5.30;;;18.40;99.90;;;;;;2051151;28;20296;-68
2023/08/13 03:00:35;;;;;;;7.23;6.07;;;18.50;99.90;;;;;;2050002;28;20266;-68
2023/08/13 03:01:38;;;;;;;7.87;5.80;;;18.50;99.90;;;;;;2046920;28;20273;-68
2023/08/13 03:02:39;;;;;;;6.53;5.80;;;18.60;99.90;;;;;;2050278;28;20230;-68
2023/08/13 03:03:40;;;;;;;6.23;5.30;;;18.60;99.90;;;;;;2048845;28;21020;-68
2023/08/13 03:04:40;;;;;;;8.73;6.73;;;18.70;99.90;;;;;;2046154;28;20670;-67
2023/08/13 03:05:41;;;;;;;7.17;6.17;;;18.70;99.90;;;;;;2054277;28;20259;-68
2023/08/13 03:06:42;;;;;;;9.17;5.90;;;18.80;99.90;;;;;;2057404;28;20238;-68
2023/08/13 03:07:42;;;;;;;6.13;5.53;;;18.80;99.90;;;;;;2048750;28;20279;-69
2023/08/13 03:08:44;;;;;;;5.13;4.60;;;18.80;99.90;;;;;;2046423;28;21026;-67
2023/08/13 03:09:44;;;;;;;6.50;5.70;;;18.70;99.90;;;;;;2049396;28;20319;-67
2023/08/13 03:10:45;;;;;;;8.83;5.80;;;18.60;99.90;;;;;;2060056;28;21017;-68
2023/08/13 03:11:46;;;;;;;6.53;5.63;;;18.60;99.90;;;;;;2038304;29;20311;-68
2023/08/13 03:12:47;;;;;;;5.90;5.30;;;18.50;99.90;;;;;;2046099;28;20624;-68
2023/08/13 03:13:48;;;;;;;7.03;5.57;;;18.60;99.90;;;;;;2062000;28;20559;-67
2023/08/13 03:14:48;;;;;;;6.07;5.43;;;18.50;99.90;;;;;;2052669;28;20939;-67
2023/08/13 03:15:49;;;;;;;5.63;4.77;;;18.40;99.90;;;;;;2049318;28;20234;-68
2023/08/13 03:16:50;;;;;;;7.30;5.57;;;18.40;99.90;;;;;;2044604;28;20758;-67
2023/08/13 03:17:50;;;;;;;5.73;5.13;;;18.40;99.90;;;;;;2046185;28;20233;-68
2023/08/13 03:18:51;;;;;;;5.17;4.40;;;18.30;99.90;;;;;;2042423;28;20778;-68
2023/08/13 03:19:52;;;;;;;6.40;5.83;;;18.30;99.90;;;;;;2044492;28;20231;-67
2023/08/13 03:20:53;;;;;;;6.20;5.60;;;18.30;99.90;;;;;;2046531;28;20683;-67
2023/08/13 03:21:53;;;;;;;7.17;6.27;;;18.40;99.90;;;;;;2053741;28;20275;-67
2023/08/13 03:22:55;;;;;;;6.60;5.63;;;18.40;99.90;;;;;;2052342;28;21072;-68
2023/08/13 03:23:55;;;;;;;7.63;6.03;;;18.40;99.90;;;;;;2052458;28;20770;-68
2023/08/13 03:24:56;;;;;;;7.20;5.83;;;18.40;99.90;;;;;;2051890;28;20476;-68
2023/08/13 03:25:57;;;;;;;6.00;5.23;;;18.40;99.90;;;;;;2053921;28;20705;-67
2023/08/13 03:26:57;;;;;;;7.93;5.67;;;18.50;99.90;;;;;;2045963;28;20278;-68
2023/08/13 03:27:58;;;;;;;7.70;6.20;;;18.50;99.90;;;;;;2041831;28;20239;-68
2023/08/13 03:28:59;;;;;;;5.97;5.37;;;18.60;99.90;;;;;;2050367;28;20230;-68
2023/08/13 03:29:59;;;;;;;5.73;5.23;;;18.50;99.90;;;;;;2045895;28;20240;-67
2023/08/13 03:31:02;;;;;;;6.77;6.10;;;18.50;99.90;;;;;;2046155;29;20223;-68
2023/08/13 03:32:02;;;;;;;7.77;6.13;;;18.60;99.90;;;;;;2053512;28;20682;-67
2023/08/13 03:33:03;;;;;;;6.23;5.43;;;18.60;99.90;;;;;;2057642;28;20424;-68
2023/08/13 03:34:04;;;;;;;7.70;6.07;;;18.70;99.90;;;;;;2053911;28;20266;-68
2023/08/13 03:35:05;;;;;;;6.53;5.67;;;18.50;99.90;;;;;;2054369;28;20215;-68
2023/08/13 03:36:06;;;;;;;6.23;5.63;;;18.50;99.90;;;;;;2050528;28;20183;-69
2023/08/13 03:37:06;;;;;;;8.83;5.43;;;18.50;99.90;;;;;;2044838;28;20522;-68
2023/08/13 03:38:07;;;;;;;6.90;6.13;;;18.40;99.90;;;;;;2038970;29;20653;-68
2023/08/13 03:39:08;;;;;;;8.20;6.00;;;18.50;99.90;;;;;;2048950;28;20191;-68
2023/08/13 03:40:09;;;;;;;6.90;5.40;;;18.40;99.90;;;;;;2045744;28;20202;-68
2023/08/13 03:41:09;;;;;;;5.90;5.30;;;18.40;99.90;;;;;;2048605;28;20206;-67
2023/08/13 03:42:10;;;;;;;6.00;5.40;;;18.50;99.90;;;;;;2061552;28;20452;-67
2023/08/13 03:43:11;;;;;;;6.73;6.07;;;18.30;99.90;;;;;;2054254;28;20191;-68
2023/08/13 03:44:12;;;;;;;6.57;5.87;;;18.30;99.90;;;;;;2048480;28;20231;-67
2023/08/13 03:45:12;;;;;;;6.80;6.10;;;18.40;99.90;;;;;;2053525;28;20211;-68
2023/08/13 03:46:13;;;;;;;6.97;6.23;;;18.30;99.90;;;;;;2049858;28;20572;-67
2023/08/13 03:47:14;;;;;;;6.23;5.60;;;18.20;99.90;;;;;;2054565;28;20191;-67
2023/08/13 03:48:14;;;;;;;6.10;5.50;;;18.10;99.90;;;;;;2051748;28;20289;-68
2023/08/13 03:49:16;;;;;;;8.37;6.10;;;18.10;99.90;;;;;;2049678;28;20191;-67
2023/08/13 03:50:16;;;;;;;6.77;5.60;;;18.10;99.90;;;;;;2052835;28;20183;-68
2023/08/13 03:51:17;;;;;;;7.50;5.93;;;18.20;99.90;;;;;;2046735;28;20425;-68
2023/08/13 03:52:18;;;;;;;6.00;5.30;;;18.20;99.90;;;;;;2049915;28;20575;-68
2023/08/13 03:53:24;;;;;;;7.37;5.77;;;18.30;99.90;;;;;;2051788;28;20272;-67
2023/08/13 03:54:25;;;;;;;6.77;5.60;;;18.30;99.90;;;;;;2041211;28;20242;-68
2023/08/13 03:55:26;;;;;;;5.83;5.10;;;18.40;99.90;;;;;;2044687;28;20466;-67
2023/08/13 03:56:27;;;;;;;6.73;5.33;;;18.40;99.90;;;;;;2055451;28;20468;-68
2023/08/13 03:57:28;;;;;;;6.93;5.40;;;18.40;99.90;;;;;;2056983;28;20238;-67
2023/08/13 03:58:30;;;;;;;6.30;5.50;;;18.40;99.90;;;;;;2043734;28;20564;-68
2023/08/13 03:59:30;;;;;;;6.87;5.50;;;18.40;99.90;;;;;;2043304;28;20790;-67
2023/08/13 04:00:31;;;;;;;6.67;5.90;;;18.30;99.90;;;;;;2056005;28;20513;-68
2023/08/13 04:01:32;;;;;;;6.80;5.60;;;18.30;99.90;;;;;;2053195;28;20717;-68
2023/08/13 04:02:33;;;;;;;7.43;5.43;;;18.40;99.90;;;;;;2061883;28;20233;-68
2023/08/13 04:03:34;;;;;;;6.27;5.67;;;18.50;99.90;;;;;;2052786;28;20231;-67
2023/08/13 04:04:35;;;;;;;6.40;5.80;;;18.40;99.90;;;;;;2050282;28;20496;-67
2023/08/13 04:05:36;;;;;;;7.30;5.87;;;18.50;99.90;;;;;;2051305;28;21004;-67
2023/08/13 04:06:37;;;;;;;8.50;5.73;;;18.50;99.90;;;;;;2049998;28;20235;-67
2023/08/13 04:07:38;;;;;;;6.83;5.93;;;18.60;99.90;;;;;;2048467;28;20473;-69
2023/08/13 04:08:38;;;;;;;6.60;5.87;;;18.70;99.90;;;;;;2045348;28;20661;-67
2023/08/13 04:09:39;;;;;;;6.93;5.23;;;18.60;99.90;;;;;;2049098;28;20263;-69
2023/08/13 04:10:40;;;;;;;5.70;5.10;;;18.50;99.90;;;;;;2060793;28;20225;-67
2023/08/13 04:11:40;;;;;;;5.93;5.33;;;18.60;99.90;;;;;;2047207;28;20243;-67
2023/08/13 04:12:41;;;;;;;6.90;5.63;;;18.60;99.90;;;;;;2053213;28;20273;-67
2023/08/13 04:13:42;;;;;;;6.23;5.50;;;18.70;99.90;;;;;;2046603;28;20274;-67
2023/08/13 04:14:42;;;;;;;6.43;5.70;;;18.70;99.90;;;;;;2050037;28;20660;-67
2023/08/13 04:15:43;;;;;;;5.90;5.20;;;18.70;99.90;;;;;;2052189;28;20231;-67
2023/08/13 04:16:44;;;;;;;6.17;5.53;;;18.60;99.90;;;;;;2053959;28;20242;-67
2023/08/13 04:17:45;;;;;;;8.77;6.83;;;18.70;99.90;;;;;;2053540;28;20230;-67
2023/08/13 04:18:45;;;;;;;7.20;6.50;;;18.60;99.90;;;;;;2049711;28;20285;-67
2023/08/13 04:19:46;;;;;;;5.93;5.10;;;18.50;99.90;;;;;;2049174;28;20239;-67
2023/08/13 04:20:47;;;;;;;6.50;5.67;;;18.50;99.90;;;;;;2050520;28;20706;-67
2023/08/13 04:21:48;;;;;;;5.93;5.40;;;18.50;99.90;;;;;;2054968;28;20484;-67
2023/08/13 04:22:49;;;;;;;7.43;5.77;;;18.40;99.90;;;;;;2049630;28;20481;-67
2023/08/13 04:23:53;;;;;;;6.10;5.50;;;18.40;99.90;;;;;;2048826;28;20235;-67
2023/08/13 04:24:54;;;;;;;8.40;6.93;;;18.50;99.90;;;;;;2045891;28;20234;-67
2023/08/13 04:25:55;;;;;;;6.47;5.03;;;18.40;99.90;;;;;;2053556;28;20840;-67
2023/08/13 04:26:55;;;;;;;5.90;4.83;;;18.40;99.90;;;;;;2049049;28;20243;-67
2023/08/13 04:27:56;;;;;;;6.80;5.33;;;18.40;99.90;;;;;;2053657;28;20245;-67
2023/08/13 04:28:57;;;;;;;5.27;4.83;;;18.40;99.90;;;;;;2051884;28;20239;-67
2023/08/13 04:29:57;;;;;;;5.97;5.03;;;18.30;99.90;;;;;;2044074;28;20274;-67
2023/08/13 04:30:58;;;;;;;6.30;5.70;;;18.20;99.90;;;;;;2047287;28;20297;-67
2023/08/13 04:31:59;;;;;;;7.50;5.93;;;18.20;99.90;;;;;;2046319;28;20242;-67
2023/08/13 04:33:01;;;;;;;6.03;5.43;;;18.20;99.90;;;;;;2043889;28;20318;-67
2023/08/13 04:34:02;;;;;;;5.97;5.37;;;18.10;99.90;;;;;;2033662;28;20232;-68
2023/08/13 04:35:03;;;;;;;7.47;5.63;;;18.20;99.90;;;;;;2042403;28;20462;-68
2023/08/13 04:36:05;;;;;;;9.03;5.33;;;18.30;99.90;;;;;;2046478;28;20191;-68
2023/08/13 04:37:05;;;;;;;6.00;5.40;;;18.30;99.90;;;;;;2043672;28;20423;-68
2023/08/13 04:38:06;;;;;;;7.23;5.43;;;18.40;99.90;;;;;;2058917;28;20466;-69
2023/08/13 04:39:07;;;;;;;6.87;4.90;;;18.50;99.90;;;;;;2056920;28;20199;-68
2023/08/13 04:40:10;;;;;;;5.33;4.83;;;18.60;99.90;;;;;;2041667;28;20433;-68
2023/08/13 04:41:11;;;;;;;6.73;5.10;;;18.60;99.90;;;;;;2048188;28;20438;-68
2023/08/13 04:42:11;;;;;;;8.00;5.47;;;18.70;99.90;;;;;;2039468;28;20561;-67
2023/08/13 04:43:12;;;;;;;6.03;5.43;;;18.70;99.90;;;;;;2038880;28;20615;-68
2023/08/13 04:44:13;;;;;;;7.53;5.20;;;18.80;99.90;;;;;;2048347;28;20188;-68
2023/08/13 04:45:15;;;;;;;6.67;4.97;;;18.80;99.90;;;;;;2047841;28;20314;-67
2023/08/13 04:46:16;;;;;;;5.60;5.03;;;18.80;99.90;;;;;;2041911;28;20196;-68
2023/08/13 04:47:16;;;;;;;6.87;5.53;;;18.90;99.90;;;;;;2052040;28;20815;-68
2023/08/13 04:48:40;;;;;;;5.97;5.17;;;19.00;99.90;;;;;;2053678;28;20198;-68
2023/08/13 04:49:41;;;;;;;6.27;5.13;;;19.00;99.90;;;;;;2045718;28;20315;-68
2023/08/13 04:50:42;;;;;;;9.40;5.83;;;19.00;99.90;;;;;;2050021;28;20990;-67
2023/08/13 04:51:42;;;;;;;6.70;5.27;;;19.00;99.90;;;;;;2042275;28;20637;-67
2023/08/13 04:52:43;;;;;;;5.37;4.83;;;18.90;99.90;;;;;;2045098;28;20230;-66
2023/08/13 04:53:45;;;;;;;5.13;4.63;;;18.90;99.90;;;;;;2043875;28;20659;-68
2023/08/13 04:54:47;;;;;;;6.50;5.10;;;18.90;99.90;;;;;;2039781;28;20279;-66
2023/08/13 04:55:48;;;;;;;6.00;4.87;;;18.90;99.90;;;;;;2039210;28;20466;-66
2023/08/13 04:56:48;;;;;;;6.77;5.00;;;18.80;99.90;;;;;;2041459;28;20478;-66
2023/08/13 04:57:49;;;;;;;7.87;5.33;;;18.70;99.90;;;;;;2043868;28;20599;-66
2023/08/13 04:58:50;;;;;;;7.93;5.20;;;18.50;99.90;;;;;;2044478;28;20290;-66
2023/08/13 04:59:51;;;;;;;6.50;5.73;;;18.50;99.90;;;;;;2043732;28;20474;-66
2023/08/13 05:00:51;;;;;;;7.00;5.87;;;18.60;99.90;;;;;;2054184;28;20238;-66
2023/08/13 05:01:52;;;;;;;6.50;5.33;;;18.60;99.90;;;;;;2054701;28;20233;-66
2023/08/13 05:02:53;;;;;;;6.03;5.10;;;18.50;99.90;;;;;;2035454;28;20323;-66
2023/08/13 05:03:53;;;;;;;5.67;5.17;;;18.50;99.90;;;;;;2057698;28;20286;-66
2023/08/13 05:04:54;;;;;;;5.30;4.80;;;18.50;99.90;;;;;;2058172;28;20258;-66
2023/08/13 05:05:55;;;;;;;7.13;5.40;;;18.70;99.90;;;;;;2040053;28;20232;-67
2023/08/13 05:06:55;;;;;;;5.77;5.23;;;18.70;99.90;;;;;;2049543;28;20679;-67
2023/08/13 05:07:56;;;;;;;5.67;5.17;;;18.80;99.90;;;;;;2054628;28;20234;-66
2023/08/13 05:08:57;;;;;;;9.03;4.93;;;18.90;99.90;;;;;;2053995;28;20230;-66
2023/08/13 05:09:58;;;;;;;7.23;5.07;;;18.90;99.90;;;;;;2049438;28;20227;-66
2023/08/13 05:10:58;;;;;;;7.40;5.47;;;19.00;99.90;;;;;;2049447;28;20854;-66
2023/08/13 05:11:59;;;;;;;8.00;5.70;;;19.10;99.90;;;;;;2046401;28;20243;-66
2023/08/13 05:13:01;;;;;;;7.23;5.70;;;19.10;99.90;;;;;;2055372;28;20233;-68
2023/08/13 05:14:02;;;;;;;5.80;5.23;;;19.00;99.90;;;;;;2045976;28;20290;-68
2023/08/13 05:15:03;;;;;;;6.43;5.37;;;18.80;99.90;;;;;;2057231;28;20880;-69
2023/08/13 05:16:04;;;;;;;6.33;5.60;;;18.80;99.90;;;;;;2047680;28;20541;-68
2023/08/13 05:17:21;;;;;;;5.87;5.23;;;18.90;99.90;;;;;;2062083;28;20426;-68
2023/08/13 05:18:21;;;;;;;7.33;4.87;;;19.00;99.90;;;;;;2049791;28;20242;-68
2023/08/13 05:19:22;;;;;;;6.00;5.33;;;19.10;99.90;;;;;;2040978;28;20480;-66
2023/08/13 05:20:24;;;;;;;6.40;5.40;;;19.10;99.90;;;;;;2045410;28;20639;-67
2023/08/13 05:21:24;;;;;;;6.23;5.30;;;19.20;99.90;;;;;;2048489;28;20262;-68